Time;durP1;ratioP1;P1;durP2;ratioP2;P2;SDS_P1;SDS_P2;PMS_P1;PMS_P2;Temp;Humidity;BMP_temperature;BMP_pressure;BME280_temperature;BME280_humidity;BME280_pressure;Samples;Min_cycle;Max_cycle;Signal;HPM_P1;HPM_P2
2021/05/13 00:00:54;;;;;;;20.73;7.57;;;9.90;90.70;;;;;;5134824;27;20047;-68
2021/05/13 00:03:19;;;;;;;19.53;8.33;;;9.90;90.70;;;;;;5135216;27;20047;-68
2021/05/13 00:05:45;;;;;;;21.47;8.53;;;9.80;90.80;;;;;;5134799;27;20048;-68
2021/05/13 00:08:11;;;;;;;27.27;8.70;;;9.80;90.80;;;;;;5134050;27;20155;-68
2021/05/13 00:10:36;;;;;;;19.70;8.47;;;9.80;90.70;;;;;;5135233;27;20051;-68
2021/05/13 00:13:03;;;;;;;19.27;8.00;;;9.70;90.80;;;;;;5134968;27;20448;-68
2021/05/13 00:15:33;;;;;;;17.77;7.23;;;9.70;90.90;;;;;;5134429;27;20487;-68
2021/05/13 00:17:59;;;;;;;19.83;7.93;;;9.70;90.90;;;;;;5135108;27;20308;-68
2021/05/13 00:20:31;;;;;;;16.33;7.00;;;9.70;90.90;;;;;;5135089;27;20300;-68
2021/05/13 00:22:58;;;;;;;18.57;8.17;;;9.70;90.90;;;;;;5134203;27;20043;-67
2021/05/13 00:25:26;;;;;;;19.70;7.80;;;9.70;90.90;;;;;;5134870;27;20690;-68
2021/05/13 00:27:51;;;;;;;18.00;8.03;;;9.70;90.90;;;;;;5134792;27;20299;-68
2021/05/13 00:30:18;;;;;;;20.93;8.80;;;9.70;91.30;;;;;;5134214;27;20297;-68
2021/05/13 00:32:44;;;;;;;17.60;9.40;;;9.70;90.90;;;;;;5134985;27;20118;-68
2021/05/13 00:35:12;;;;;;;14.33;7.70;;;9.60;91.00;;;;;;5134896;27;20828;-68
2021/05/13 00:37:38;;;;;;;23.57;9.83;;;9.60;91.00;;;;;;5134240;27;20411;-68
2021/05/13 00:40:05;;;;;;;21.53;8.83;;;9.60;91.10;;;;;;5134554;27;20780;-68
2021/05/13 00:42:31;;;;;;;18.80;8.57;;;9.60;91.10;;;;;;5134783;27;20058;-68
2021/05/13 00:44:57;;;;;;;17.30;8.23;;;9.60;91.10;;;;;;5133960;27;20308;-68
2021/05/13 00:47:24;;;;;;;19.23;7.87;;;9.60;91.00;;;;;;5134611;27;20043;-68
2021/05/13 00:49:50;;;;;;;21.13;9.30;;;9.60;91.00;;;;;;5134335;27;20487;-67
2021/05/13 00:52:19;;;;;;;28.33;9.67;;;9.50;91.10;;;;;;5133507;27;20299;-68
2021/05/13 00:54:46;;;;;;;21.20;9.70;;;9.50;91.20;;;;;;5134187;27;20051;-68
2021/05/13 00:57:12;;;;;;;25.27;9.40;;;9.40;91.20;;;;;;5133865;27;20361;-67
2021/05/13 00:59:41;;;;;;;17.57;8.73;;;9.40;91.30;;;;;;5134445;27;20300;-67
2021/05/13 01:02:06;;;;;;;18.87;7.87;;;9.30;91.30;;;;;;5134583;27;20296;-67
2021/05/13 01:04:32;;;;;;;19.40;7.73;;;9.30;91.30;;;;;;5133424;27;20437;-68
2021/05/13 01:06:58;;;;;;;23.90;9.57;;;9.20;91.30;;;;;;5133945;27;20107;-68
2021/05/13 01:09:27;;;;;;;17.20;8.77;;;9.20;91.40;;;;;;5134160;27;20295;-67
2021/05/13 01:11:58;;;;;;;20.97;9.87;;;9.10;91.40;;;;;;5133416;27;20389;-67
2021/05/13 01:14:40;;;;;;;18.75;8.65;;;9.10;91.50;;;;;;5134134;27;20292;-67
2021/05/13 01:19:52;;;;;;;20.75;9.00;;;9.20;91.40;;;;;;5132859;27;20047;-68
2021/05/13 01:22:20;;;;;;;19.97;9.67;;;9.20;91.40;;;;;;5133825;27;20172;-68
2021/05/13 01:24:47;;;;;;;11.30;6.87;;;9.20;91.30;;;;;;5133829;27;20308;-68
2021/05/13 01:27:14;;;;;;;15.07;8.50;;;9.20;91.30;;;;;;5132987;27;20305;-68
2021/05/13 01:29:45;;;;;;;14.27;8.60;;;9.10;91.30;;;;;;5134074;27;20293;-68
2021/05/13 01:32:12;;;;;;;18.30;9.02;;;9.10;91.40;;;;;;5133727;27;20305;-68
2021/05/13 01:34:38;;;;;;;18.90;8.40;;;9.10;91.40;;;;;;5133221;27;20039;-68
2021/05/13 01:37:03;;;;;;;22.97;9.83;;;9.10;91.90;;;;;;5133466;27;20386;-68
2021/05/13 01:39:29;;;;;;;14.40;8.77;;;9.10;91.50;;;;;;5132853;27;20126;-68
2021/05/13 01:41:55;;;;;;;12.37;6.67;;;9.10;91.50;;;;;;5133582;27;20463;-68
2021/05/13 01:44:20;;;;;;;16.20;9.57;;;9.10;91.50;;;;;;5133531;27;20043;-67
2021/05/13 01:46:46;;;;;;;14.07;8.20;;;9.10;91.60;;;;;;5132526;27;20051;-68
2021/05/13 01:49:17;;;;;;;13.37;7.10;;;9.10;91.50;;;;;;5133767;27;20501;-67
2021/05/13 01:51:44;;;;;;;16.30;8.90;;;9.20;91.60;;;;;;5133116;27;20487;-67
2021/05/13 01:54:09;;;;;;;13.90;8.57;;;9.20;91.60;;;;;;5132700;27;20436;-67
2021/05/13 01:56:35;;;;;;;16.03;8.27;;;9.20;91.60;;;;;;5133237;27;20355;-68
2021/05/13 01:59:00;;;;;;;17.53;7.93;;;9.20;91.60;;;;;;5132866;27;20058;-67
2021/05/13 02:01:26;;;;;;;23.53;9.50;;;9.20;91.60;;;;;;5132372;27;20128;-68
2021/05/13 02:03:52;;;;;;;19.47;9.47;;;9.10;91.60;;;;;;5133293;27;20051;-68
2021/05/13 02:06:17;;;;;;;21.13;9.13;;;9.20;91.70;;;;;;5132949;27;20051;-68
2021/05/13 02:08:44;;;;;;;16.33;7.97;;;9.20;91.70;;;;;;5132329;27;20051;-68
2021/05/13 02:11:10;;;;;;;12.93;7.97;;;9.20;91.70;;;;;;5133322;27;20292;-68
2021/05/13 02:13:36;;;;;;;17.17;8.90;;;9.20;91.70;;;;;;5132699;27;20051;-68
2021/05/13 02:16:02;;;;;;;18.40;9.33;;;9.20;91.80;;;;;;5131861;27;20130;-68
2021/05/13 02:18:27;;;;;;;16.37;9.43;;;9.20;91.70;;;;;;5132960;27;20184;-67
2021/05/13 02:20:53;;;;;;;16.63;9.57;;;9.20;91.70;;;;;;5132591;27;20491;-68
2021/05/13 02:23:19;;;;;;;14.17;8.60;;;9.20;91.80;;;;;;5131799;27;20051;-68
2021/05/13 02:25:46;;;;;;;16.63;9.43;;;9.20;92.20;;;;;;5132827;27;20046;-67
2021/05/13 02:28:14;;;;;;;21.13;10.80;;;9.20;91.80;;;;;;5132694;27;20065;-67
2021/05/13 02:30:40;;;;;;;18.23;9.67;;;9.30;92.40;;;;;;5131148;27;20300;-67
2021/05/13 02:33:06;;;;;;;17.93;9.17;;;9.30;92.00;;;;;;5132780;27;20774;-67
2021/05/13 02:35:31;;;;;;;17.97;10.20;;;9.30;92.10;;;;;;5132066;27;20376;-67
2021/05/13 02:37:58;;;;;;;20.07;10.30;;;9.30;92.10;;;;;;5132162;27;20050;-67
2021/05/13 02:40:24;;;;;;;24.03;11.20;;;9.30;92.10;;;;;;5132630;27;20132;-67
2021/05/13 02:42:50;;;;;;;20.23;9.30;;;9.30;92.10;;;;;;5131881;27;20288;-67
2021/05/13 02:45:16;;;;;;;27.17;10.33;;;9.30;92.10;;;;;;5132495;27;20047;-67
2021/05/13 02:47:42;;;;;;;19.50;9.60;;;9.30;92.10;;;;;;5132524;28;20055;-67
2021/05/13 02:50:11;;;;;;;19.73;11.00;;;9.40;92.10;;;;;;5131843;27;20522;-67
2021/05/13 02:52:36;;;;;;;23.97;10.67;;;9.40;92.10;;;;;;5132265;27;20297;-67
2021/05/13 02:55:03;;;;;;;18.63;9.60;;;9.40;92.00;;;;;;5132324;28;20304;-67
2021/05/13 02:57:29;;;;;;;18.57;9.93;;;9.40;92.10;;;;;;5131515;27;20051;-67
2021/05/13 03:00:04;;;;;;;21.13;10.77;;;9.40;92.00;;;;;;5131638;28;20305;-67
2021/05/13 03:02:30;;;;;;;19.33;10.13;;;9.40;92.50;;;;;;5132399;27;20047;-67
2021/05/13 03:04:56;;;;;;;20.43;10.23;;;9.30;92.10;;;;;;5131568;28;20430;-67
2021/05/13 03:07:21;;;;;;;24.60;11.03;;;9.30;92.20;;;;;;5132001;28;20375;-67
2021/05/13 03:09:55;;;;;;;15.83;9.23;;;9.30;92.20;;;;;;5132123;27;20124;-67
2021/05/13 03:12:20;;;;;;;22.07;10.53;;;9.30;92.10;;;;;;5131322;27;20047;-68
2021/05/13 03:14:46;;;;;;;18.67;10.03;;;9.40;92.20;;;;;;5132226;27;20293;-67
2021/05/13 03:17:12;;;;;;;19.30;9.87;;;9.40;92.20;;;;;;5132539;27;20049;-67
2021/05/13 03:19:44;;;;;;;15.47;8.20;;;9.40;92.10;;;;;;5131494;27;20285;-67
2021/05/13 03:22:15;;;;;;;20.27;10.00;;;9.50;92.10;;;;;;5132257;27;20058;-68
2021/05/13 03:27:37;;;;;;;18.40;9.73;;;9.50;91.90;;;;;;5131609;28;20399;-68
2021/05/13 03:30:01;;;;;;;21.43;9.70;;;9.50;91.90;;;;;;5131910;28;20055;-68
2021/05/13 03:32:27;;;;;;;18.50;9.07;;;9.50;91.90;;;;;;5131098;28;20361;-68
2021/05/13 03:34:53;;;;;;;13.47;8.67;;;9.50;91.90;;;;;;5132097;28;20047;-68
2021/05/13 03:37:20;;;;;;;18.17;9.30;;;9.60;91.90;;;;;;5131842;28;20078;-68
2021/05/13 03:39:46;;;;;;;21.90;10.37;;;9.60;91.80;;;;;;5131437;27;20051;-68
2021/05/13 03:42:11;;;;;;;16.23;8.63;;;9.60;91.80;;;;;;5135300;27;20694;-68
2021/05/13 03:44:37;;;;;;;18.87;9.97;;;9.60;91.80;;;;;;5135879;27;20445;-68
2021/05/13 03:47:02;;;;;;;17.37;9.77;;;9.60;91.80;;;;;;5135133;27;20043;-68
2021/05/13 03:49:28;;;;;;;15.80;8.90;;;9.60;91.80;;;;;;5135525;27;20043;-68
2021/05/13 03:51:54;;;;;;;16.23;8.70;;;9.60;91.80;;;;;;5135657;27;20055;-67
2021/05/13 03:54:19;;;;;;;19.90;9.43;;;9.60;91.80;;;;;;5135074;27;20108;-68
2021/05/13 03:56:46;;;;;;;18.40;8.00;;;9.60;91.70;;;;;;5135620;27;20054;-68
2021/05/13 03:59:15;;;;;;;19.70;9.00;;;9.60;91.60;;;;;;5135556;27;20694;-68
2021/05/13 04:04:08;;;;;;;16.37;8.17;;;9.50;91.70;;;;;;5135590;27;20764;-68
2021/05/13 04:06:39;;;;;;;;;;;9.50;91.70;;;;;;5136133;27;20051;-68
2021/05/13 04:09:08;;;;;;;17.10;8.20;;;9.40;91.70;;;;;;5134712;27;19930;-68
2021/05/13 04:11:39;;;;;;;18.17;8.73;;;9.40;91.60;;;;;;5135404;27;20073;-68
2021/05/13 04:14:11;;;;;;;16.90;8.87;;;9.40;91.60;;;;;;5134646;27;20372;-68
2021/05/13 04:16:40;;;;;;;19.83;8.23;;;9.30;91.70;;;;;;5135246;27;20316;-67
2021/05/13 04:19:06;;;;;;;13.67;7.23;;;9.30;91.60;;;;;;5135234;27;20300;-68
2021/05/13 04:21:32;;;;;;;17.87;7.47;;;9.30;91.70;;;;;;5134397;27;20303;-68
2021/05/13 04:23:57;;;;;;;12.60;6.83;;;9.30;91.70;;;;;;5135090;27;20114;-68
2021/05/13 04:26:23;;;;;;;10.27;6.67;;;9.40;91.70;;;;;;5134736;27;20351;-68
2021/05/13 04:28:50;;;;;;;16.63;7.10;;;9.30;91.50;;;;;;5134444;27;20057;-68
2021/05/13 04:31:16;;;;;;;13.63;8.33;;;9.30;91.60;;;;;;5134689;27;20556;-68
2021/05/13 04:33:42;;;;;;;12.83;7.93;;;9.30;91.70;;;;;;5134904;27;20337;-68
2021/05/13 04:36:08;;;;;;;17.30;7.73;;;9.30;91.80;;;;;;5134107;27;20104;-68
2021/05/13 04:38:40;;;;;;;14.43;7.43;;;9.30;91.80;;;;;;5135053;27;20090;-68
2021/05/13 04:41:06;;;;;;;14.13;7.03;;;9.40;91.90;;;;;;5134835;27;20727;-68
2021/05/13 04:43:36;;;;;;;16.40;7.00;;;9.40;91.90;;;;;;5133651;27;20531;-68
2021/05/13 04:46:03;;;;;;;12.90;6.30;;;9.40;91.90;;;;;;5134430;27;20039;-67
2021/05/13 04:48:51;;;;;;;12.13;5.87;;;9.40;91.90;;;;;;5134542;27;20293;-68
2021/05/13 04:51:19;;;;;;;11.03;5.80;;;9.40;91.90;;;;;;5133355;27;20375;-68
2021/05/13 04:53:49;;;;;;;15.97;7.30;;;9.50;91.90;;;;;;5133412;27;20348;-68
2021/05/13 04:56:15;;;;;;;13.67;6.37;;;9.60;91.80;;;;;;5133555;27;20354;-68
2021/05/13 04:58:42;;;;;;;14.77;7.63;;;9.60;91.80;;;;;;5134302;27;20292;-69
2021/05/13 05:01:08;;;;;;;15.40;6.53;;;9.70;91.80;;;;;;5134267;27;20296;-68
2021/05/13 05:03:33;;;;;;;11.67;6.90;;;9.80;91.80;;;;;;5133607;27;20312;-68
2021/05/13 05:05:59;;;;;;;13.13;6.03;;;9.90;91.80;;;;;;5134198;27;20078;-68
2021/05/13 05:08:26;;;;;;;12.60;6.50;;;10.10;91.70;;;;;;5134134;27;20043;-68
2021/05/13 05:10:54;;;;;;;12.43;5.70;;;10.20;91.60;;;;;;5133148;27;20789;-68
2021/05/13 05:13:20;;;;;;;9.90;5.30;;;10.40;91.30;;;;;;5133678;27;20297;-67
2021/05/13 05:15:46;;;;;;;14.23;6.67;;;10.40;91.10;;;;;;5134102;27;20062;-67
2021/05/13 05:18:20;;;;;;;9.83;6.03;;;10.60;91.20;;;;;;5133451;27;20050;-67
2021/05/13 05:20:45;;;;;;;10.90;4.63;;;10.90;91.10;;;;;;5133643;27;20165;-68
2021/05/13 05:23:11;;;;;;;13.33;6.37;;;11.20;91.00;;;;;;5134068;27;20144;-67
2021/05/13 05:25:38;;;;;;;10.60;5.80;;;11.70;90.90;;;;;;5132858;27;20047;-68
2021/05/13 05:28:05;;;;;;;12.27;6.03;;;12.30;90.40;;;;;;5133878;27;20054;-68
2021/05/13 05:30:33;;;;;;;11.33;6.33;;;13.00;88.80;;;;;;5133727;27;20047;-68
2021/05/13 05:33:04;;;;;;;12.73;5.70;;;13.60;85.50;;;;;;5132899;27;20051;-68
2021/05/13 05:35:30;;;;;;;9.30;4.40;;;13.60;83.50;;;;;;5133698;27;20055;-68
2021/05/13 05:37:58;;;;;;;9.03;5.40;;;13.50;83.50;;;;;;5133191;27;20096;-67
2021/05/13 05:40:25;;;;;;;11.57;5.43;;;13.40;83.50;;;;;;5132826;27;20040;-68
2021/05/13 05:42:52;;;;;;;12.80;6.10;;;13.30;83.00;;;;;;5133405;27;20058;-68
2021/05/13 05:45:22;;;;;;;14.67;6.37;;;13.20;83.20;;;;;;5133278;27;20509;-68
2021/05/13 05:47:52;;;;;;;11.73;6.30;;;13.30;82.90;;;;;;5133055;27;20047;-68
2021/05/13 05:50:19;;;;;;;9.90;5.57;;;13.40;82.70;;;;;;5133526;27;20051;-68
2021/05/13 05:52:49;;;;;;;10.60;5.43;;;13.50;82.20;;;;;;5132175;27;20091;-68
2021/05/13 05:55:14;;;;;;;9.87;4.83;;;13.70;82.20;;;;;;5133166;27;20043;-68
2021/05/13 05:57:40;;;;;;;7.63;5.07;;;13.70;81.20;;;;;;5133422;27;20124;-68
2021/05/13 06:00:08;;;;;;;9.40;5.33;;;13.70;81.20;;;;;;5132270;27;20054;-68
2021/05/13 06:02:36;;;;;;;8.60;5.87;;;13.80;80.90;;;;;;5132550;27;20051;-68
2021/05/13 06:05:10;;;;;;;10.13;5.50;;;14.00;80.40;;;;;;5133034;27;20506;-68
2021/05/13 06:07:37;;;;;;;13.03;5.90;;;14.50;79.70;;;;;;5132246;27;20050;-68
2021/05/13 06:10:06;;;;;;;11.10;4.43;;;15.00;77.70;;;;;;5133144;27;20043;-67
2021/05/13 06:12:36;;;;;;;11.03;5.30;;;15.10;76.00;;;;;;5132994;27;20051;-67
2021/05/13 06:15:04;;;;;;;9.57;5.03;;;14.90;75.70;;;;;;5132166;27;20050;-68
2021/05/13 06:17:31;;;;;;;9.03;4.80;;;14.60;74.80;;;;;;5132569;27;20047;-68
2021/05/13 06:20:02;;;;;;;10.90;5.50;;;14.30;75.40;;;;;;5132755;27;20058;-68
2021/05/13 06:22:32;;;;;;;11.03;5.90;;;14.00;76.10;;;;;;5132041;27;20047;-68
2021/05/13 06:24:58;;;;;;;7.50;4.30;;;13.70;76.90;;;;;;5132727;27;20188;-67
2021/05/13 06:27:24;;;;;;;9.87;5.47;;;13.50;76.60;;;;;;5132783;27;20052;-68
2021/05/13 06:29:55;;;;;;;8.40;5.05;;;13.40;76.20;;;;;;5131467;27;20552;-68
2021/05/13 06:32:22;;;;;;;9.73;5.00;;;13.30;76.60;;;;;;5132324;27;20047;-67
2021/05/13 06:34:48;;;;;;;10.77;4.60;;;13.30;76.90;;;;;;5131894;27;20047;-67
2021/05/13 06:37:13;;;;;;;10.77;4.60;;;13.30;77.30;;;;;;5132379;27;20498;-68
2021/05/13 06:39:39;;;;;;;8.27;3.97;;;13.30;77.20;;;;;;5133144;27;20047;-67
2021/05/13 06:42:15;;;;;;;10.43;4.73;;;13.50;77.10;;;;;;5131990;27;20077;-68
2021/05/13 06:44:40;;;;;;;10.50;5.07;;;13.70;76.60;;;;;;5132096;27;20042;-68
2021/05/13 06:47:06;;;;;;;7.83;4.73;;;13.70;75.80;;;;;;5132391;27;20127;-67
2021/05/13 06:49:32;;;;;;;13.03;5.97;;;13.70;75.60;;;;;;5131202;27;20748;-67
2021/05/13 06:52:14;;;;;;;;;;;13.70;75.70;;;;;;5132409;27;20051;-68
2021/05/13 06:54:41;;;;;;;10.77;5.63;;;13.70;74.90;;;;;;5132148;27;19923;-68
2021/05/13 06:57:08;;;;;;;10.70;4.90;;;13.80;76.60;;;;;;5131812;27;20134;-68
2021/05/13 06:59:34;;;;;;;10.87;5.10;;;14.00;75.80;;;;;;5132042;27;20067;-68
2021/05/13 07:01:59;;;;;;;13.53;5.47;;;14.20;74.90;;;;;;5132338;27;20495;-68
2021/05/13 07:04:28;;;;;;;8.60;4.20;;;14.30;74.10;;;;;;5131405;27;20051;-67
2021/05/13 07:06:54;;;;;;;10.93;4.00;;;14.20;73.80;;;;;;5131967;27;20047;-68
2021/05/13 07:09:20;;;;;;;7.53;4.17;;;14.10;73.10;;;;;;5132082;27;20498;-67
2021/05/13 07:11:45;;;;;;;6.63;3.67;;;13.90;73.20;;;;;;5131366;28;20129;-68
2021/05/13 07:14:11;;;;;;;9.47;3.70;;;13.80;73.40;;;;;;5132508;28;20437;-68
2021/05/13 07:16:37;;;;;;;8.37;3.20;;;13.70;73.20;;;;;;5133854;27;20130;-68
2021/05/13 07:19:04;;;;;;;7.37;3.40;;;13.60;72.60;;;;;;5135306;27;20180;-68
2021/05/13 07:21:30;;;;;;;9.73;4.20;;;13.50;72.20;;;;;;5136028;27;20086;-68
2021/05/13 07:23:55;;;;;;;10.80;3.67;;;13.50;72.40;;;;;;5134879;27;20046;-68
2021/05/13 07:26:22;;;;;;;9.03;3.47;;;13.50;72.60;;;;;;5135784;27;20097;-67
2021/05/13 07:28:48;;;;;;;8.27;3.47;;;13.50;72.70;;;;;;5136064;27;20078;-68
2021/05/13 07:31:14;;;;;;;9.47;4.07;;;13.40;72.80;;;;;;5134765;27;20131;-68
2021/05/13 07:33:40;;;;;;;10.93;5.07;;;13.40;73.00;;;;;;5135880;27;20043;-68
2021/05/13 07:36:07;;;;;;;10.00;4.00;;;13.30;73.30;;;;;;5135839;27;20051;-68
2021/05/13 07:38:35;;;;;;;8.10;3.90;;;13.30;73.40;;;;;;5135114;27;20050;-68
2021/05/13 07:41:03;;;;;;;8.13;3.73;;;13.40;73.40;;;;;;5135564;27;20055;-67
2021/05/13 07:43:32;;;;;;;8.10;3.87;;;13.40;73.30;;;;;;5135396;27;20061;-68
2021/05/13 07:45:58;;;;;;;10.10;4.00;;;13.40;73.40;;;;;;5134985;27;20051;-67
2021/05/13 07:48:27;;;;;;;9.33;4.67;;;13.60;73.40;;;;;;5135400;27;20047;-69
2021/05/13 07:50:53;;;;;;;9.53;4.90;;;13.60;73.30;;;;;;5135515;27;20134;-68
2021/05/13 07:53:18;;;;;;;9.93;5.30;;;13.70;73.40;;;;;;5134465;27;20133;-68
2021/05/13 07:55:44;;;;;;;12.07;5.63;;;13.80;73.60;;;;;;5135588;27;20126;-68
2021/05/13 07:58:10;;;;;;;12.73;6.40;;;13.90;73.50;;;;;;5135504;27;20043;-68
2021/05/13 08:00:35;;;;;;;12.40;6.27;;;14.00;73.90;;;;;;5134074;27;20141;-68
2021/05/13 08:03:01;;;;;;;14.67;6.13;;;14.00;74.10;;;;;;5135473;27;20058;-68
2021/05/13 08:05:27;;;;;;;16.67;6.83;;;14.10;74.40;;;;;;5135313;27;20047;-68
2021/05/13 08:07:52;;;;;;;13.63;5.83;;;14.30;74.10;;;;;;5133611;27;20150;-68
2021/05/13 08:10:18;;;;;;;11.20;4.23;;;14.30;74.30;;;;;;5134060;27;20163;-68
2021/05/13 08:12:44;;;;;;;9.03;4.40;;;14.50;74.20;;;;;;5134750;27;20184;-68
2021/05/13 08:15:12;;;;;;;10.53;4.43;;;14.70;74.30;;;;;;5134113;27;20091;-68
2021/05/13 08:17:39;;;;;;;11.97;4.60;;;15.00;74.20;;;;;;5134522;27;20392;-68
2021/05/13 08:20:07;;;;;;;11.13;4.27;;;15.30;73.90;;;;;;5134337;27;20047;-68
2021/05/13 08:22:34;;;;;;;10.43;3.80;;;15.50;73.20;;;;;;5133427;27;20047;-68
2021/05/13 08:25:00;;;;;;;12.50;3.57;;;15.60;73.20;;;;;;5134391;27;20043;-69
2021/05/13 08:27:26;;;;;;;13.53;2.67;;;15.80;73.30;;;;;;5132775;27;20134;-68
2021/05/13 08:29:52;;;;;;;13.10;3.00;;;15.90;72.60;;;;;;5134891;27;20547;-68
2021/05/13 08:32:17;;;;;;;11.37;3.53;;;16.10;71.60;;;;;;5134659;27;20039;-69
2021/05/13 08:34:43;;;;;;;11.90;3.33;;;16.20;71.00;;;;;;5134086;27;20134;-68
2021/05/13 08:37:09;;;;;;;7.33;2.40;;;16.30;70.50;;;;;;5133579;27;20059;-68
2021/05/13 08:39:35;;;;;;;11.20;2.80;;;16.30;69.80;;;;;;5134525;27;20516;-69
2021/05/13 08:42:02;;;;;;;7.37;1.97;;;16.20;68.80;;;;;;5133293;27;20055;-68
2021/05/13 08:44:29;;;;;;;5.27;1.70;;;16.30;67.50;;;;;;5134107;27;20150;-69
2021/05/13 08:46:58;;;;;;;10.67;2.23;;;16.30;67.00;;;;;;5134402;27;20080;-68
2021/05/13 08:49:26;;;;;;;8.13;1.83;;;16.30;66.50;;;;;;5133450;27;20494;-68
2021/05/13 08:51:52;;;;;;;7.97;2.27;;;16.30;66.20;;;;;;5133876;27;20050;-68
2021/05/13 08:54:19;;;;;;;6.87;2.20;;;16.50;65.40;;;;;;5134538;27;20077;-68
2021/05/13 08:56:44;;;;;;;9.30;2.43;;;16.60;64.80;;;;;;5133565;27;20057;-69
2021/05/13 08:59:13;;;;;;;8.90;2.57;;;16.60;64.70;;;;;;5134261;27;20047;-69
2021/05/13 09:01:56;;;;;;;7.47;2.03;;;16.70;65.40;;;;;;5134290;27;20047;-69
2021/05/13 09:04:22;;;;;;;5.80;1.57;;;16.90;63.20;;;;;;5133078;27;20402;-69
2021/05/13 09:06:48;;;;;;;6.93;1.60;;;17.00;63.70;;;;;;5133771;27;20059;-68
2021/05/13 09:09:20;;;;;;;5.03;1.77;;;17.10;62.00;;;;;;5133956;27;20442;-69
2021/05/13 09:11:49;;;;;;;7.97;1.93;;;17.10;61.80;;;;;;5132949;27;20495;-69
2021/05/13 09:14:41;;;;;;;7.20;1.80;;;17.20;62.60;;;;;;5133728;27;20043;-69
2021/05/13 09:17:24;;;;;;;6.77;1.77;;;17.40;60.00;;;;;;5131036;27;20337;-69
2021/05/13 09:19:49;;;;;;;7.85;1.38;;;17.50;58.90;;;;;;5133758;27;20047;-69
2021/05/13 09:22:25;;;;;;;5.47;1.50;;;17.50;60.50;;;;;;5133494;27;20139;-69
2021/05/13 09:24:58;;;;;;;6.50;1.83;;;17.60;58.80;;;;;;5132888;27;20167;-69
2021/05/13 09:27:42;;;;;;;6.07;1.50;;;17.60;57.70;;;;;;5133546;27;20047;-69
2021/05/13 09:30:24;;;;;;;5.33;1.27;;;17.70;56.50;;;;;;5134037;27;20073;-68
2021/05/13 09:32:54;;;;;;;5.57;1.30;;;17.70;56.30;;;;;;5132668;27;20126;-68
2021/05/13 09:35:26;;;;;;;4.27;1.30;;;17.80;55.90;;;;;;5133432;27;20051;-68
2021/05/13 09:37:59;;;;;;;4.80;1.77;;;17.70;55.40;;;;;;5132398;27;20095;-68
2021/05/13 09:40:50;;;;;;;7.07;1.90;;;17.60;55.30;;;;;;5132957;27;20039;-68
2021/05/13 09:43:16;;;;;;;6.80;1.45;;;17.50;56.40;;;;;;5133222;27;20043;-68
2021/05/13 09:45:43;;;;;;;8.37;1.77;;;17.50;56.40;;;;;;5132210;27;20491;-69
2021/05/13 09:48:08;;;;;;;5.10;1.60;;;17.40;55.10;;;;;;5133556;27;20051;-68
2021/05/13 09:50:34;;;;;;;6.30;2.03;;;17.30;55.20;;;;;;5132567;27;20047;-68
2021/05/13 09:53:01;;;;;;;4.63;1.77;;;17.10;55.60;;;;;;5131923;27;20147;-68
2021/05/13 09:55:31;;;;;;;8.87;1.90;;;16.90;56.20;;;;;;5132907;27;20092;-68
2021/05/13 09:58:04;;;;;;;7.00;1.77;;;16.90;57.20;;;;;;5132792;27;20413;-68
2021/05/13 10:00:47;;;;;;;7.60;1.90;;;16.90;57.10;;;;;;5131663;27;20055;-68
2021/05/13 10:03:17;;;;;;;5.10;1.80;;;16.90;57.20;;;;;;5132798;27;20051;-68
2021/05/13 10:05:47;;;;;;;5.50;1.70;;;16.90;57.50;;;;;;5131805;27;20566;-68
2021/05/13 10:08:14;;;;;;;6.70;1.63;;;16.90;57.40;;;;;;5132397;27;20066;-68
2021/05/13 10:10:41;;;;;;;6.50;1.57;;;17.00;57.80;;;;;;5133143;27;20039;-68
2021/05/13 10:13:07;;;;;;;7.37;1.73;;;16.90;57.80;;;;;;5131841;27;20407;-68
2021/05/13 10:15:38;;;;;;;5.27;1.60;;;16.90;57.60;;;;;;5131866;27;20047;-68
2021/05/13 10:18:16;;;;;;;5.85;2.15;;;16.90;57.60;;;;;;5131916;27;20057;-68
2021/05/13 10:20:43;;;;;;;4.27;1.37;;;16.80;57.40;;;;;;5131709;27;20047;-68
2021/05/13 10:23:13;;;;;;;7.83;2.03;;;16.80;58.10;;;;;;5132551;27;20043;-68
2021/05/13 10:25:42;;;;;;;6.53;1.40;;;16.80;58.00;;;;;;5132503;27;20506;-68
2021/05/13 10:28:12;;;;;;;5.97;1.37;;;16.90;57.80;;;;;;5131481;27;20410;-68
2021/05/13 10:30:38;;;;;;;5.57;1.33;;;16.90;57.80;;;;;;5132610;27;20047;-68
2021/05/13 10:33:08;;;;;;;4.17;1.10;;;17.00;57.80;;;;;;5132429;27;20376;-67
2021/05/13 10:35:33;;;;;;;5.67;1.20;;;17.00;56.70;;;;;;5131524;27;20047;-68
2021/05/13 10:38:04;;;;;;;6.57;1.57;;;16.90;56.50;;;;;;5131613;27;20099;-68
2021/05/13 10:43:08;;;;;;;7.60;1.70;;;16.80;57.10;;;;;;5131293;27;20441;-68
2021/05/13 10:45:39;;;;;;;5.50;1.60;;;16.90;57.50;;;;;;5131779;27;20047;-68
2021/05/13 10:48:24;;;;;;;6.18;1.80;;;17.00;57.40;;;;;;5131506;27;20043;-68
2021/05/13 10:51:04;;;;;;;4.63;1.30;;;17.00;57.60;;;;;;5131177;27;20047;-69
2021/05/13 10:53:36;;;;;;;4.63;1.90;;;17.00;57.90;;;;;;5132098;27;20415;-68
2021/05/13 10:56:23;;;;;;;3.73;1.80;;;17.00;57.80;;;;;;5131163;27;20058;-68
2021/05/13 10:59:08;;;;;;;5.57;1.67;;;17.00;57.60;;;;;;5131955;27;20043;-68
2021/05/13 11:01:46;;;;;;;6.63;2.17;;;17.00;58.00;;;;;;5131759;27;20093;-67
2021/05/13 11:04:24;;;;;;;6.87;1.93;;;17.00;57.80;;;;;;5131573;27;20047;-68
2021/05/13 11:06:51;;;;;;;6.20;1.97;;;17.00;57.50;;;;;;5131846;27;20129;-68
2021/05/13 11:09:41;;;;;;;7.47;2.17;;;17.00;57.90;;;;;;5131144;27;20103;-68
2021/05/13 11:12:36;;;;;;;6.87;2.17;;;17.10;57.70;;;;;;5123945;27;20043;-68
2021/05/13 11:20:35;;;;;;;7.70;2.20;;;17.40;56.60;;;;;;5131864;28;20050;-67
2021/05/13 11:23:10;;;;;;;7.47;2.17;;;17.40;57.10;;;;;;5131070;27;20054;-68
2021/05/13 11:25:41;;;;;;;7.13;1.87;;;17.40;57.70;;;;;;5131443;27;20054;-67
2021/05/13 11:28:17;;;;;;;7.17;2.93;;;17.40;57.70;;;;;;5131417;27;20096;-68
2021/05/13 11:30:43;;;;;;;6.43;2.13;;;17.40;57.30;;;;;;5130923;27;20131;-68
2021/05/13 11:33:09;;;;;;;7.00;2.50;;;17.40;58.10;;;;;;5132247;27;20043;-68
2021/05/13 11:35:37;;;;;;;8.37;2.50;;;17.40;57.80;;;;;;5131724;27;20137;-68
2021/05/13 11:38:17;;;;;;;9.20;2.53;;;17.30;57.30;;;;;;5130508;27;20047;-67
2021/05/13 11:40:43;;;;;;;8.67;2.90;;;17.20;57.50;;;;;;5131344;27;20453;-68
2021/05/13 11:43:17;;;;;;;8.07;3.17;;;17.30;58.00;;;;;;5131930;27;20043;-67
2021/05/13 11:45:44;;;;;;;6.70;2.57;;;17.40;57.50;;;;;;5130654;27;20051;-68
2021/05/13 11:48:27;;;;;;;7.50;2.70;;;17.30;57.30;;;;;;5131846;27;20050;-67
2021/05/13 11:50:55;;;;;;;7.13;2.80;;;17.20;56.90;;;;;;5131142;27;20055;-68
2021/05/13 11:53:22;;;;;;;6.97;2.97;;;17.20;56.60;;;;;;5130286;27;20459;-68
2021/05/13 11:55:48;;;;;;;5.80;3.20;;;17.20;56.30;;;;;;5131410;27;20062;-67
2021/05/13 11:58:33;;;;;;;8.50;2.87;;;17.10;56.30;;;;;;5130739;27;20133;-68
2021/05/13 12:01:37;;;;;;;6.13;2.93;;;17.10;56.50;;;;;;5131109;27;20130;-68
2021/05/13 12:04:17;;;;;;;6.47;2.70;;;17.20;57.10;;;;;;5134973;27;20536;-67
2021/05/13 12:07:02;;;;;;;8.77;2.50;;;17.20;56.90;;;;;;5133903;27;20476;-68
2021/05/13 12:09:30;;;;;;;9.50;3.00;;;17.20;56.90;;;;;;5135102;27;20047;-67
2021/05/13 12:11:56;;;;;;;6.97;2.50;;;17.30;56.80;;;;;;5134238;27;20392;-68
2021/05/13 12:14:26;;;;;;;5.60;2.27;;;17.30;56.20;;;;;;5134280;27;20070;-68
2021/05/13 12:17:11;;;;;;;7.33;2.30;;;17.40;56.50;;;;;;5134770;27;20043;-68
2021/05/13 12:19:42;;;;;;;6.83;2.50;;;17.40;55.80;;;;;;5133921;27;20055;-68
2021/05/13 12:22:11;;;;;;;5.03;2.13;;;17.50;56.20;;;;;;5134905;27;20406;-68
2021/05/13 12:24:40;;;;;;;6.00;2.10;;;17.60;56.20;;;;;;5134851;27;20051;-68
2021/05/13 12:27:05;;;;;;;7.50;1.83;;;17.60;56.00;;;;;;5134356;27;20058;-68
2021/05/13 12:29:33;;;;;;;4.67;2.07;;;17.60;56.40;;;;;;5134469;27;20122;-68
2021/05/13 12:31:59;;;;;;;4.97;2.30;;;17.70;56.60;;;;;;5134374;27;20099;-67
2021/05/13 12:34:41;;;;;;;5.67;2.30;;;17.70;56.80;;;;;;5133139;27;20043;-68
2021/05/13 12:37:07;;;;;;;;;;;17.60;56.70;;;;;;5134945;27;20054;-68
2021/05/13 12:39:40;;;;;;;6.30;2.47;;;17.50;57.30;;;;;;5134427;27;19923;-67
2021/05/13 12:42:28;;;;;;;6.27;2.43;;;17.50;57.20;;;;;;5133462;27;20047;-68
2021/05/13 12:45:17;;;;;;;6.97;2.90;;;17.50;57.10;;;;;;5134219;27;20043;-67
2021/05/13 12:47:44;;;;;;;4.67;2.40;;;17.40;56.60;;;;;;5133319;27;20047;-69
2021/05/13 12:50:11;;;;;;;7.57;2.87;;;17.30;56.60;;;;;;5134144;27;20047;-67
2021/05/13 12:52:39;;;;;;;7.17;2.50;;;17.30;56.90;;;;;;5134075;27;20055;-67
2021/05/13 12:55:16;;;;;;;7.50;2.40;;;17.40;57.30;;;;;;5133262;27;20061;-67
2021/05/13 12:57:44;;;;;;;4.13;2.20;;;17.40;58.20;;;;;;5134114;27;20165;-67
2021/05/13 13:00:11;;;;;;;5.60;2.17;;;17.40;58.10;;;;;;5134149;27;20118;-67
2021/05/13 13:02:37;;;;;;;5.50;2.17;;;17.40;57.80;;;;;;5133284;27;20455;-67
2021/05/13 13:05:06;;;;;;;5.77;2.13;;;17.40;57.60;;;;;;5134072;27;20047;-68
2021/05/13 13:07:42;;;;;;;4.47;2.40;;;17.30;57.30;;;;;;5133742;27;20073;-67
2021/05/13 13:10:27;;;;;;;5.50;1.60;;;17.30;57.00;;;;;;5133183;27;20047;-67